Cumberland, MD (21501)

11:46 PM EST on December 04, 2016 (GMT -0500)
Mapleside | | Change Station

Elev 764 ft 39.64 °N, 78.75 °W | Updated 2 seconds ago

Light Snow
Light Snow
37.6 °F
Feels Like 38 °F
N
0.0
Wind Variable Wind from SSW
Gusts 0.0 mph

Today
High -- | Low -- °F
--% Chance of Precip.
Yesterday
High -- | Low -- °F
Precip. -- in
Pressure 29.95 in
Visibility 5.0 miles
Clouds Overcast 1200 ft
Windchill 38 °F
Dew Point 35 °F
Humidity 90%
Rainfall 0.09 in
Snow Depth Not available.
7:20 AM 4:50 PM
Waxing Crescent, 28% visible
METAR KHMZ 050435Z AUTO 17008KT 5SM -SN OVC012 01/00 A2995 RMK AO2 P0003 T00111002
Pressure 29.95 in
Visibility 5.0 miles
Clouds Overcast 1200 ft
Windchill 38 °F
Dew Point 35 °F
Humidity 90%
Rainfall 0.09 in
Snow Depth Not available.
7:20 AM 4:50 PM
Waxing Crescent, 28% visible
METAR KHMZ 050435Z AUTO 17008KT 5SM -SN OVC012 01/00 A2995 RMK AO2 P0003 T00111002

10-Day Weather Forecast

Almanac

Astronomy

Dec. 04, 2016 Rise Set
Actual Time
Civil Twilight
Nautical Twilight
Astronomical Twilight
Moon
Length of Visible Light
Length of Day
Tomorrow will be .
, % of the Moon is Illuminated

Today's Extremes

State Highs State Lows

Community

WunderPhotos

Upload Photos

1,955,763 photos uploaded!

WunderBlog® & News

Nearby

Air Quality

  Air Quality AQ Index Pollutant
Not available.

Snow Depth

Station Depth Elevation

Earthquake Activity

City Distance Mag. Time & Date
Minimum magnitude displayed is 2.5.

Coastal Water Temperatures

Place Temperature

Stations

Nearby Weather Stations

Station Location Temp. Windchill Dew Point Humidity Wind Precip. Elev Updated Type
                   

Watches & Warnings

There are currently no watches in effect.